createdAt,value
2022-11-17T00:00:44.241Z,9.00
2022-11-17T00:03:18.595Z,9.00
2022-11-17T00:05:45.675Z,9.00
2022-11-17T00:08:13.130Z,9.00
2022-11-17T00:10:40.374Z,9.00
2022-11-17T00:13:27.509Z,9.00
2022-11-17T00:15:56.069Z,9.00
2022-11-17T00:18:41.694Z,9.00
2022-11-17T00:21:21.574Z,9.00
2022-11-17T00:23:50.693Z,9.00
2022-11-17T00:26:20.293Z,9.00
2022-11-17T00:28:48.344Z,9.00
2022-11-17T00:31:34.254Z,9.00
2022-11-17T00:34:07.542Z,9.00
2022-11-17T00:36:41.406Z,9.00
2022-11-17T00:39:10.455Z,9.00
2022-11-17T00:41:37.859Z,9.10
2022-11-17T00:44:05.998Z,9.10
2022-11-17T00:46:33.584Z,9.10
2022-11-17T00:49:00.757Z,9.20
2022-11-17T00:51:28.618Z,9.30
2022-11-17T00:53:55.745Z,9.30
2022-11-17T00:56:23.206Z,9.30
2022-11-17T00:58:50.392Z,9.30
2022-11-17T01:01:17.787Z,9.30
2022-11-17T01:03:45.067Z,9.30
2022-11-17T01:06:15.382Z,9.20
2022-11-17T01:08:43.506Z,9.20
2022-11-17T01:11:16.618Z,9.30
2022-11-17T01:13:45.429Z,9.30
2022-11-17T01:16:18.442Z,9.30
2022-11-17T01:18:47.284Z,9.30
2022-11-17T01:21:24.872Z,9.30
2022-11-17T01:23:54.198Z,9.20
2022-11-17T01:26:27.224Z,9.20
2022-11-17T01:28:54.693Z,9.30
2022-11-17T01:31:25.099Z,9.30
2022-11-17T01:33:52.800Z,9.30
2022-11-17T01:36:28.405Z,9.30
2022-11-17T01:38:55.876Z,9.30
2022-11-17T01:41:26.308Z,9.30
2022-11-17T01:43:58.741Z,9.30
2022-11-17T01:46:33.433Z,9.30
2022-11-17T01:49:27.874Z,9.20
2022-11-17T01:52:06.092Z,9.20
2022-11-17T01:54:35.785Z,9.20
2022-11-17T01:57:10.221Z,9.20
2022-11-17T01:59:46.825Z,9.20
2022-11-17T02:02:14.113Z,9.20
2022-11-17T02:04:49.865Z,9.20
2022-11-17T02:07:32.068Z,9.20
2022-11-17T02:10:01.877Z,9.20
2022-11-17T02:12:32.576Z,9.20
2022-11-17T02:15:00.534Z,9.10
2022-11-17T02:17:38.925Z,9.20
2022-11-17T02:20:18.146Z,9.20
2022-11-17T02:23:12.372Z,9.20
2022-11-17T02:25:42.227Z,9.10
2022-11-17T02:28:36.336Z,9.10
2022-11-17T02:31:18.476Z,9.10
2022-11-17T02:34:08.463Z,9.10
2022-11-17T02:37:00.702Z,9.10
2022-11-17T02:39:37.163Z,9.10
2022-11-17T02:42:42.298Z,9.00
2022-11-17T02:45:14.463Z,9.00
2022-11-17T02:47:44.374Z,9.00
2022-11-17T02:50:13.152Z,9.00
2022-11-17T02:52:40.543Z,9.00
2022-11-17T02:55:09.919Z,9.10
2022-11-17T02:57:39.533Z,9.00
2022-11-17T03:00:12.993Z,9.00
2022-11-17T03:02:58.995Z,9.00
2022-11-17T03:05:45.033Z,9.00
2022-11-17T03:08:47.351Z,9.00
2022-11-17T03:11:15.090Z,9.00
2022-11-17T03:13:57.381Z,9.00
2022-11-17T03:16:38.371Z,9.00
2022-11-17T03:19:27.294Z,9.00
2022-11-17T03:21:54.431Z,9.00
2022-11-17T03:24:44.558Z,9.00
2022-11-17T03:27:28.083Z,9.00
2022-11-17T03:30:00.547Z,9.00
2022-11-17T03:32:31.153Z,8.90
2022-11-17T03:35:05.157Z,9.00
2022-11-17T03:37:34.221Z,9.00
2022-11-17T03:40:11.135Z,9.00
2022-11-17T03:42:42.291Z,9.00
2022-11-17T03:45:22.071Z,9.00
2022-11-17T03:47:54.058Z,9.00
2022-11-17T03:50:57.287Z,9.00
2022-11-17T03:53:24.684Z,8.90
2022-11-17T03:56:15.251Z,9.00
2022-11-17T03:59:09.462Z,9.00
2022-11-17T04:01:37.509Z,8.90
2022-11-17T04:04:04.757Z,8.90
2022-11-17T04:06:31.781Z,8.90
2022-11-17T04:08:58.813Z,8.90
2022-11-17T04:11:44.445Z,8.90
2022-11-17T04:14:30.096Z,8.90
2022-11-17T04:16:57.258Z,8.80
2022-11-17T04:19:24.673Z,8.70
2022-11-17T04:21:51.656Z,8.80
2022-11-17T04:24:18.756Z,8.80
2022-11-17T04:27:04.573Z,8.80
2022-11-17T04:29:31.921Z,8.80
2022-11-17T04:31:59.124Z,8.90
2022-11-17T04:34:26.471Z,8.90
2022-11-17T04:36:53.731Z,8.90
2022-11-17T04:39:20.890Z,8.90
2022-11-17T04:41:54.385Z,8.90
2022-11-17T04:44:27.179Z,8.90
2022-11-17T04:46:55.599Z,8.80
2022-11-17T04:49:24.227Z,8.90
2022-11-17T04:51:52.793Z,8.90
2022-11-17T04:54:22.257Z,8.90
2022-11-17T04:56:49.530Z,8.90
2022-11-17T04:59:17.164Z,8.80
2022-11-17T05:01:45.780Z,8.90
2022-11-17T05:04:15.863Z,8.90
2022-11-17T05:06:46.361Z,8.90
2022-11-17T05:09:16.287Z,8.90
2022-11-17T05:12:03.072Z,8.90
2022-11-17T05:14:30.831Z,9.00
2022-11-17T05:17:09.875Z,9.00
2022-11-17T05:19:40.434Z,9.10
2022-11-17T05:22:29.471Z,9.10
2022-11-17T05:24:56.578Z,9.10
2022-11-17T05:27:24.916Z,9.10
2022-11-17T05:29:52.395Z,9.10
2022-11-17T05:32:19.895Z,9.10
2022-11-17T05:34:47.248Z,9.10
2022-11-17T05:37:14.495Z,9.20
2022-11-17T05:39:41.821Z,9.20
2022-11-17T05:42:09.138Z,9.20
2022-11-17T05:44:36.502Z,9.20
2022-11-17T05:47:03.852Z,9.20
2022-11-17T05:49:31.117Z,9.20
2022-11-17T05:51:58.554Z,9.20
2022-11-17T05:54:27.173Z,9.20
2022-11-17T05:57:12.555Z,9.20
2022-11-17T05:59:50.693Z,9.20
2022-11-17T06:02:23.886Z,9.20
2022-11-17T06:04:52.390Z,9.20
2022-11-17T06:07:20.490Z,9.10
2022-11-17T06:09:48.158Z,9.10
2022-11-17T06:12:15.731Z,9.10
2022-11-17T06:14:43.195Z,9.10
2022-11-17T06:17:23.185Z,9.10
2022-11-17T06:20:06.134Z,9.10
2022-11-17T06:22:33.956Z,9.10
2022-11-17T06:25:03.750Z,9.10
2022-11-17T06:27:32.715Z,9.10
2022-11-17T06:30:05.147Z,9.10
2022-11-17T06:32:34.584Z,9.10
2022-11-17T06:35:03.500Z,9.00
2022-11-17T06:37:30.947Z,9.00
2022-11-17T06:39:58.185Z,9.00
2022-11-17T06:42:45.616Z,9.00
2022-11-17T06:45:12.989Z,9.00
2022-11-17T06:47:40.424Z,9.00
2022-11-17T06:50:08.180Z,9.00
2022-11-17T06:52:35.513Z,9.00
2022-11-17T06:55:02.838Z,9.00
2022-11-17T06:57:30.911Z,9.10
2022-11-17T06:59:58.274Z,9.00
2022-11-17T07:02:25.454Z,9.00
2022-11-17T07:04:52.772Z,9.00
2022-11-17T07:07:19.958Z,9.00
2022-11-17T07:09:47.267Z,9.00
2022-11-17T07:12:14.616Z,9.00
2022-11-17T07:14:42.033Z,9.00
2022-11-17T07:17:09.377Z,9.00
2022-11-17T07:19:36.608Z,9.00
2022-11-17T07:22:04.329Z,9.00
2022-11-17T07:24:31.755Z,9.00
2022-11-17T07:26:59.068Z,8.90
2022-11-17T07:29:26.311Z,8.90
2022-11-17T07:31:53.540Z,8.90
2022-11-17T07:34:20.838Z,8.80
2022-11-17T07:36:47.971Z,8.80
2022-11-17T07:39:21.019Z,8.70
2022-11-17T07:41:48.910Z,8.70
2022-11-17T07:44:16.132Z,8.70
2022-11-17T07:46:43.484Z,8.70
2022-11-17T07:49:10.773Z,8.70
2022-11-17T07:51:38.071Z,8.80
2022-11-17T07:54:05.451Z,8.80
2022-11-17T07:56:32.914Z,8.80
2022-11-17T07:59:00.243Z,8.80
2022-11-17T08:01:27.727Z,8.80
2022-11-17T08:03:55.424Z,8.90
2022-11-17T08:06:24.282Z,8.90
2022-11-17T08:08:52.176Z,8.90
2022-11-17T08:11:19.665Z,8.90
2022-11-17T08:13:47.324Z,8.90
2022-11-17T08:16:14.700Z,8.90
2022-11-17T08:18:45.989Z,8.90
2022-11-17T08:21:16.048Z,8.90
2022-11-17T08:23:43.587Z,8.90
2022-11-17T08:26:12.403Z,9.00
2022-11-17T08:28:40.249Z,8.90
2022-11-17T08:31:08.582Z,9.00
2022-11-17T08:33:36.429Z,9.00
2022-11-17T08:36:07.428Z,9.10
2022-11-17T08:38:35.156Z,9.10
2022-11-17T08:41:04.608Z,9.10
2022-11-17T08:43:32.075Z,9.20
2022-11-17T08:45:59.214Z,9.20
2022-11-17T08:48:26.366Z,9.20
2022-11-17T08:50:53.565Z,9.20
2022-11-17T08:53:22.248Z,9.20
2022-11-17T08:55:50.242Z,9.30
2022-11-17T08:58:17.864Z,9.30
2022-11-17T09:00:47.594Z,9.30
2022-11-17T09:03:15.335Z,9.30
2022-11-17T09:05:47.194Z,9.30
2022-11-17T09:08:45.037Z,9.40
2022-11-17T09:11:10.473Z,9.40
2022-11-17T09:13:38.423Z,9.40
2022-11-17T09:16:10.656Z,9.50
2022-11-17T09:18:39.215Z,9.60
2022-11-17T09:21:09.728Z,9.60
2022-11-17T09:23:37.637Z,9.70
2022-11-17T09:26:06.861Z,9.80
2022-11-17T09:28:34.592Z,9.90
2022-11-17T09:31:08.362Z,10.00
2022-11-17T09:33:35.962Z,10.10
2022-11-17T09:36:03.450Z,10.20
2022-11-17T09:38:30.805Z,10.30
2022-11-17T09:40:59.122Z,10.40
2022-11-17T09:43:34.641Z,10.50
2022-11-17T09:46:31.870Z,10.50
2022-11-17T09:49:17.794Z,10.50
2022-11-17T09:51:47.607Z,10.40
2022-11-17T09:54:28.932Z,10.40
2022-11-17T09:56:58.627Z,10.30
2022-11-17T09:59:28.478Z,10.20
2022-11-17T10:01:55.623Z,10.20
2022-11-17T10:04:26.758Z,10.10
2022-11-17T10:06:53.883Z,10.10
2022-11-17T10:09:25.982Z,10.10
2022-11-17T10:11:59.118Z,10.20
2022-11-17T10:14:29.438Z,10.20
2022-11-17T10:16:58.884Z,10.20
2022-11-17T10:19:26.986Z,10.40
2022-11-17T10:22:03.795Z,10.40
2022-11-17T10:24:34.950Z,10.50
2022-11-17T10:27:18.082Z,10.50
2022-11-17T10:30:11.758Z,10.40
2022-11-17T10:32:48.837Z,10.40
2022-11-17T10:35:18.745Z,10.40
2022-11-17T10:37:59.089Z,10.40
2022-11-17T10:40:45.556Z,10.40
2022-11-17T10:43:12.747Z,10.40
2022-11-17T10:45:52.674Z,10.40
2022-11-17T10:48:53.072Z,10.40
2022-11-17T10:51:32.737Z,10.50
2022-11-17T10:54:07.083Z,10.50
2022-11-17T10:56:41.486Z,10.50
2022-11-17T10:59:33.513Z,10.50
2022-11-17T11:02:26.455Z,10.50
2022-11-17T11:05:09.389Z,10.50
2022-11-17T11:07:37.210Z,10.60
2022-11-17T11:10:12.873Z,10.60
2022-11-17T11:12:59.413Z,10.60
2022-11-17T11:15:35.119Z,10.60
2022-11-17T11:18:06.107Z,10.60
2022-11-17T11:21:00.557Z,10.50
2022-11-17T11:23:43.436Z,10.60
2022-11-17T11:26:16.275Z,10.60
2022-11-17T11:28:55.252Z,10.70
2022-11-17T11:31:48.553Z,10.70
2022-11-17T11:34:40.125Z,10.70
2022-11-17T11:37:13.044Z,10.70
2022-11-17T11:39:54.132Z,10.60
2022-11-17T11:43:04.420Z,10.60
2022-11-17T11:46:01.182Z,10.60
2022-11-17T11:48:34.125Z,10.60
2022-11-17T11:51:04.363Z,10.60
2022-11-17T11:53:50.495Z,10.60
2022-11-17T11:56:33.017Z,10.70
2022-11-17T11:59:19.163Z,10.80
2022-11-17T12:02:04.778Z,10.90
2022-11-17T12:04:50.754Z,11.00
2022-11-17T12:07:33.764Z,11.00
2022-11-17T12:10:14.178Z,11.00
2022-11-17T12:12:45.402Z,11.00
2022-11-17T12:15:32.069Z,11.00
2022-11-17T12:18:04.275Z,11.00
2022-11-17T12:20:31.528Z,11.10
2022-11-17T12:23:16.975Z,11.20
2022-11-17T12:25:54.479Z,11.40
2022-11-17T12:28:36.566Z,11.40
2022-11-17T12:31:10.865Z,11.40
2022-11-17T12:33:53.343Z,11.40
2022-11-17T12:36:32.405Z,11.40
2022-11-17T12:39:05.254Z,11.40
2022-11-17T12:42:04.093Z,11.40
2022-11-17T12:44:37.780Z,11.40
2022-11-17T12:47:14.389Z,11.40
2022-11-17T12:50:09.248Z,11.30
2022-11-17T12:53:12.228Z,11.30
2022-11-17T12:55:53.496Z,11.40
2022-11-17T12:58:50.509Z,11.40
2022-11-17T13:01:33.821Z,11.30
2022-11-17T13:04:10.607Z,11.40
2022-11-17T13:06:38.103Z,11.80
2022-11-17T13:09:08.385Z,12.40
2022-11-17T13:11:35.835Z,13.10
2022-11-17T13:14:11.942Z,13.40
2022-11-17T13:16:52.286Z,13.50
2022-11-17T13:19:33.334Z,13.50
2022-11-17T13:22:04.903Z,13.30
2022-11-17T13:24:36.491Z,12.90
2022-11-17T13:27:09.602Z,12.70
2022-11-17T13:29:36.904Z,12.50
2022-11-17T13:32:21.243Z,12.30
2022-11-17T13:34:56.618Z,12.00
2022-11-17T13:37:32.725Z,11.90
2022-11-17T13:40:21.212Z,11.80
2022-11-17T13:42:49.839Z,11.70
2022-11-17T13:45:17.431Z,11.70
2022-11-17T13:47:48.083Z,11.60
2022-11-17T13:50:44.428Z,11.60
2022-11-17T13:53:11.686Z,11.60
2022-11-17T13:55:46.018Z,11.50
2022-11-17T13:58:29.422Z,11.60
2022-11-17T14:01:00.528Z,11.60
2022-11-17T14:03:40.583Z,12.00
2022-11-17T14:06:13.367Z,12.40
2022-11-17T14:08:42.604Z,12.70
2022-11-17T14:11:12.549Z,13.10
2022-11-17T14:13:48.687Z,13.30
2022-11-17T14:16:37.232Z,13.30
2022-11-17T14:19:16.527Z,13.20
2022-11-17T14:22:01.852Z,12.90
2022-11-17T14:24:30.425Z,12.50
2022-11-17T14:27:13.714Z,12.20
2022-11-17T14:29:40.998Z,12.00
2022-11-17T14:32:08.198Z,11.90
2022-11-17T14:34:35.934Z,11.90
2022-11-17T14:37:05.778Z,11.80
2022-11-17T14:39:35.877Z,11.70
2022-11-17T14:42:02.955Z,11.70
2022-11-17T14:44:29.954Z,11.60
2022-11-17T14:46:56.950Z,11.50
2022-11-17T14:49:24.006Z,11.50
2022-11-17T14:51:51.250Z,11.40
2022-11-17T14:54:18.429Z,11.30
2022-11-17T14:56:45.588Z,11.30
2022-11-17T14:59:14.105Z,11.30
2022-11-17T15:01:41.533Z,11.20
2022-11-17T15:04:42.858Z,11.20
2022-11-17T15:06:59.492Z,11.10
2022-11-17T15:09:26.599Z,11.10
2022-11-17T15:11:53.763Z,11.00
2022-11-17T15:14:20.780Z,11.00
2022-11-17T15:16:47.897Z,11.00
2022-11-17T15:19:14.970Z,10.90
2022-11-17T15:21:42.044Z,10.90
2022-11-17T15:24:09.477Z,10.90
2022-11-17T15:26:36.652Z,10.90
2022-11-17T15:29:03.760Z,10.80
2022-11-17T15:31:30.983Z,10.70
2022-11-17T15:33:58.063Z,10.80
2022-11-17T15:36:25.336Z,10.70
2022-11-17T15:38:53.612Z,10.70
2022-11-17T15:41:21.439Z,10.70
2022-11-17T15:43:48.681Z,10.70
2022-11-17T15:46:17.774Z,10.60
2022-11-17T15:48:47.558Z,10.60
2022-11-17T15:51:17.046Z,10.60
2022-11-17T15:53:45.575Z,10.50
2022-11-17T15:56:16.201Z,10.50
2022-11-17T15:58:44.103Z,10.50
2022-11-17T16:01:27.402Z,10.50
2022-11-17T16:04:17.586Z,10.50
2022-11-17T16:06:46.396Z,10.40
2022-11-17T16:09:15.329Z,10.40
2022-11-17T16:11:43.100Z,10.30
2022-11-17T16:14:10.255Z,10.20
2022-11-17T16:16:39.792Z,10.20
2022-11-17T16:19:07.253Z,10.20
2022-11-17T16:21:34.377Z,10.10
2022-11-17T16:24:02.499Z,10.10
2022-11-17T16:26:30.812Z,10.00
2022-11-17T16:28:59.859Z,10.00
2022-11-17T16:31:29.185Z,9.90
2022-11-17T16:34:02.145Z,9.90
2022-11-17T16:36:36.818Z,9.80
2022-11-17T16:39:06.787Z,9.80
2022-11-17T16:41:36.387Z,9.80
2022-11-17T16:44:12.108Z,9.70
2022-11-17T16:46:43.133Z,9.70
2022-11-17T16:49:13.118Z,9.70
2022-11-17T16:51:40.969Z,9.60
2022-11-17T16:54:12.643Z,9.60
2022-11-17T16:56:40.468Z,9.60
2022-11-17T16:59:08.285Z,9.50
2022-11-17T17:01:35.687Z,9.50
2022-11-17T17:04:05.470Z,9.40
2022-11-17T17:06:33.118Z,9.40
2022-11-17T17:09:05.688Z,9.40
2022-11-17T17:11:35.159Z,9.30
2022-11-17T17:14:04.887Z,9.30
2022-11-17T17:16:33.858Z,9.30
2022-11-17T17:19:04.381Z,9.20
2022-11-17T17:21:32.793Z,9.20
2022-11-17T17:24:00.475Z,9.20
2022-11-17T17:26:29.484Z,9.10
2022-11-17T17:28:59.493Z,9.10
2022-11-17T17:31:31.926Z,9.00
2022-11-17T17:34:02.295Z,9.00
2022-11-17T17:36:30.529Z,9.00
2022-11-17T17:38:59.489Z,8.90
2022-11-17T17:41:29.536Z,8.90
2022-11-17T17:44:07.415Z,8.90
2022-11-17T17:46:37.517Z,8.90
2022-11-17T17:49:04.826Z,8.90
2022-11-17T17:51:32.099Z,8.90
2022-11-17T17:54:02.204Z,8.90
2022-11-17T17:56:30.950Z,8.90
2022-11-17T17:58:58.529Z,8.90
2022-11-17T18:01:30.555Z,9.00
2022-11-17T18:04:05.127Z,9.00
2022-11-17T18:06:38.285Z,9.00
2022-11-17T18:09:07.237Z,9.00
2022-11-17T18:11:35.965Z,9.00
2022-11-17T18:14:03.961Z,9.00
2022-11-17T18:16:32.997Z,9.00
2022-11-17T18:19:06.070Z,9.10
2022-11-17T18:21:33.737Z,9.10
2022-11-17T18:24:02.479Z,9.10
2022-11-17T18:26:35.570Z,9.00
2022-11-17T18:29:07.208Z,9.10
2022-11-17T18:31:37.492Z,9.00
2022-11-17T18:34:13.644Z,9.00
2022-11-17T18:36:42.838Z,9.10
2022-11-17T18:39:10.503Z,9.00
2022-11-17T18:41:37.978Z,9.00
2022-11-17T18:44:05.559Z,9.00
2022-11-17T18:46:33.779Z,9.00
2022-11-17T18:49:00.914Z,9.00
2022-11-17T18:51:30.783Z,9.00
2022-11-17T18:54:00.455Z,9.00
2022-11-17T18:56:33.003Z,8.90
2022-11-17T18:59:00.631Z,8.90
2022-11-17T19:01:30.182Z,8.90
2022-11-17T19:04:02.764Z,8.90
2022-11-17T19:06:30.876Z,8.90
2022-11-17T19:09:01.409Z,8.90
2022-11-17T19:11:30.994Z,8.90
2022-11-17T19:14:02.322Z,8.90
2022-11-17T19:16:30.390Z,8.90
2022-11-17T19:18:58.042Z,8.90
2022-11-17T19:21:30.286Z,8.90
2022-11-17T19:23:59.645Z,8.90
2022-11-17T19:26:31.822Z,8.80
2022-11-17T19:29:05.121Z,8.80
2022-11-17T19:31:33.220Z,8.80
2022-11-17T19:34:01.652Z,8.80
2022-11-17T19:36:30.809Z,8.70
2022-11-17T19:38:59.715Z,8.70
2022-11-17T19:41:32.176Z,8.60
2022-11-17T19:44:02.120Z,8.60
2022-11-17T19:46:33.041Z,8.50
2022-11-17T19:49:00.636Z,8.50
2022-11-17T19:51:33.228Z,8.40
2022-11-17T19:54:08.819Z,8.50
2022-11-17T19:56:36.631Z,8.40
2022-11-17T19:59:05.621Z,8.40
2022-11-17T20:01:34.050Z,8.40
2022-11-17T20:04:02.217Z,8.40
2022-11-17T20:06:34.894Z,8.40
2022-11-17T20:09:05.824Z,8.30
2022-11-17T20:11:35.423Z,8.30
2022-11-17T20:14:03.472Z,8.30
2022-11-17T20:16:32.151Z,8.30
2022-11-17T20:19:01.409Z,8.20
2022-11-17T20:21:29.992Z,8.30
2022-11-17T20:23:59.393Z,8.20
2022-11-17T20:26:30.277Z,8.20
2022-11-17T20:28:58.842Z,8.20
2022-11-17T20:31:32.584Z,8.20
2022-11-17T20:34:01.562Z,8.20
2022-11-17T20:36:31.120Z,8.30
2022-11-17T20:39:04.618Z,8.30
2022-11-17T20:41:32.662Z,8.30
2022-11-17T20:44:00.941Z,8.30
2022-11-17T20:46:28.268Z,8.20
2022-11-17T20:48:55.706Z,8.20
2022-11-17T20:51:25.084Z,8.20
2022-11-17T20:53:52.885Z,8.20
2022-11-17T20:56:20.693Z,8.20
2022-11-17T20:58:48.370Z,8.20
2022-11-17T21:01:21.423Z,8.20
2022-11-17T21:03:51.957Z,8.20
2022-11-17T21:06:23.313Z,8.20
2022-11-17T21:08:50.874Z,8.20
2022-11-17T21:11:43.212Z,8.20
2022-11-17T21:14:12.483Z,8.10
2022-11-17T21:16:45.669Z,8.10
2022-11-17T21:19:14.449Z,8.10
2022-11-17T21:21:41.868Z,8.20
2022-11-17T21:24:10.288Z,8.20
2022-11-17T21:26:37.793Z,8.20
2022-11-17T21:29:06.975Z,8.10
2022-11-17T21:31:35.374Z,8.10
2022-11-17T21:34:04.706Z,8.20
2022-11-17T21:36:33.764Z,8.20
2022-11-17T21:39:01.231Z,8.20
2022-11-17T21:41:30.535Z,8.10
2022-11-17T21:44:02.418Z,8.10
2022-11-17T21:46:33.164Z,8.10
2022-11-17T21:49:03.247Z,8.10
2022-11-17T21:51:33.676Z,8.00
2022-11-17T21:54:03.161Z,8.00
2022-11-17T21:56:32.286Z,7.90
2022-11-17T21:59:02.127Z,7.90
2022-11-17T22:01:31.197Z,7.80
2022-11-17T22:03:58.720Z,7.70
2022-11-17T22:06:26.942Z,7.70
2022-11-17T22:08:55.958Z,7.60
2022-11-17T22:11:37.820Z,7.50
2022-11-17T22:14:16.866Z,7.60
2022-11-17T22:16:49.600Z,7.60
2022-11-17T22:19:18.054Z,7.60
2022-11-17T22:21:47.205Z,7.60
2022-11-17T22:24:14.800Z,7.60
2022-11-17T22:26:43.860Z,7.60
2022-11-17T22:29:17.559Z,7.60
2022-11-17T22:31:46.389Z,7.50
2022-11-17T22:34:14.817Z,7.50
2022-11-17T22:36:42.531Z,7.40
2022-11-17T22:39:10.094Z,7.40
2022-11-17T22:41:37.472Z,7.40
2022-11-17T22:44:05.573Z,7.40
2022-11-17T22:46:33.037Z,7.30
2022-11-17T22:49:00.365Z,7.30
2022-11-17T22:51:45.928Z,7.30
2022-11-17T22:54:13.121Z,7.30
2022-11-17T22:56:40.224Z,7.30
2022-11-17T22:59:07.646Z,7.30
2022-11-17T23:01:35.064Z,7.30
2022-11-17T23:04:02.168Z,7.30
2022-11-17T23:06:29.483Z,7.30
2022-11-17T23:08:58.371Z,7.30
2022-11-17T23:11:42.200Z,7.30
2022-11-17T23:14:14.004Z,7.30
2022-11-17T23:16:43.185Z,7.30
2022-11-17T23:19:14.327Z,7.40
2022-11-17T23:21:42.280Z,7.30
2022-11-17T23:24:10.711Z,7.40
2022-11-17T23:26:37.943Z,7.30
2022-11-17T23:29:05.477Z,7.30
2022-11-17T23:31:33.064Z,7.20
2022-11-17T23:34:00.335Z,7.20
2022-11-17T23:36:27.800Z,7.10
2022-11-17T23:38:57.852Z,7.10
2022-11-17T23:41:25.259Z,7.10
2022-11-17T23:43:53.877Z,7.20
2022-11-17T23:46:23.644Z,7.20
2022-11-17T23:48:51.127Z,7.30
2022-11-17T23:51:20.663Z,7.30
2022-11-17T23:53:49.576Z,7.30
2022-11-17T23:56:19.187Z,7.30
2022-11-17T23:58:46.571Z,7.40
